sensor_id;sensor_type;location;lat;lon;timestamp;temperature;humidity
1165;DHT22;571;50.930;6.926;2023-05-20T02:46:45;15.30;94.50
1165;DHT22;571;50.930;6.926;2023-05-20T02:53:16;15.00;94.70
1165;DHT22;571;50.930;6.926;2023-05-20T02:56:24;15.30;96.00
1165;DHT22;571;50.930;6.926;2023-05-20T02:59:16;15.20;95.80
1165;DHT22;571;50.930;6.926;2023-05-20T03:01:44;15.10;95.60
1165;DHT22;571;50.930;6.926;2023-05-20T03:04:11;15.30;96.10
1165;DHT22;571;50.930;6.926;2023-05-20T03:06:48;15.40;96.50
1165;DHT22;571;50.930;6.926;2023-05-20T03:09:26;15.30;96.50
1165;DHT22;571;50.930;6.926;2023-05-20T03:11:53;15.20;96.10
1165;DHT22;571;50.930;6.926;2023-05-20T03:14:30;15.20;96.90
1165;DHT22;571;50.930;6.926;2023-05-20T03:17:01;15.30;97.00
1165;DHT22;571;50.930;6.926;2023-05-20T03:19:29;15.30;90.70
1165;DHT22;571;50.930;6.926;2023-05-20T03:21:58;15.00;92.90
1165;DHT22;571;50.930;6.926;2023-05-20T03:24:31;15.00;92.70
1165;DHT22;571;50.930;6.926;2023-05-20T03:26:59;14.80;93.20
1165;DHT22;571;50.930;6.926;2023-05-20T03:29:27;15.20;93.60
1165;DHT22;571;50.930;6.926;2023-05-20T03:31:57;15.00;93.50
1165;DHT22;571;50.930;6.926;2023-05-20T03:34:32;14.90;93.90
1165;DHT22;571;50.930;6.926;2023-05-20T03:37:01;14.80;93.60
1165;DHT22;571;50.930;6.926;2023-05-20T03:39:34;15.00;94.10
1165;DHT22;571;50.930;6.926;2023-05-20T03:42:09;14.90;94.20
1165;DHT22;571;50.930;6.926;2023-05-20T03:44:38;14.90;94.60
1165;DHT22;571;50.930;6.926;2023-05-20T03:47:14;14.80;95.20
1165;DHT22;571;50.930;6.926;2023-05-20T03:49:42;14.80;94.40
1165;DHT22;571;50.930;6.926;2023-05-20T03:52:12;14.60;95.60
1165;DHT22;571;50.930;6.926;2023-05-20T03:54:52;15.00;95.20
1165;DHT22;571;50.930;6.926;2023-05-20T03:57:25;14.60;95.00
1165;DHT22;571;50.930;6.926;2023-05-20T04:00:04;14.70;95.80
1165;DHT22;571;50.930;6.926;2023-05-20T04:02:34;14.50;95.40
1165;DHT22;571;50.930;6.926;2023-05-20T04:05:09;14.80;96.30
1165;DHT22;571;50.930;6.926;2023-05-20T04:07:38;14.60;96.20
1165;DHT22;571;50.930;6.926;2023-05-20T04:10:06;14.60;96.50
1165;DHT22;571;50.930;6.926;2023-05-20T04:12:35;14.60;96.10
1165;DHT22;571;50.930;6.926;2023-05-20T04:15:08;14.70;96.50
1165;DHT22;571;50.930;6.926;2023-05-20T04:17:35;14.60;96.60
1165;DHT22;571;50.930;6.926;2023-05-20T04:20:09;14.60;96.80
1165;DHT22;571;50.930;6.926;2023-05-20T04:22:47;14.40;96.50
1165;DHT22;571;50.930;6.926;2023-05-20T04:25:19;14.50;96.60
1165;DHT22;571;50.930;6.926;2023-05-20T04:27:48;14.80;96.20
1165;DHT22;571;50.930;6.926;2023-05-20T04:30:18;14.80;96.70
1165;DHT22;571;50.930;6.926;2023-05-20T04:32:49;14.80;96.40
1165;DHT22;571;50.930;6.926;2023-05-20T04:35:23;15.30;96.40
1165;DHT22;571;50.930;6.926;2023-05-20T04:37:54;14.80;96.40
1165;DHT22;571;50.930;6.926;2023-05-20T04:40:29;15.10;96.30
1165;DHT22;571;50.930;6.926;2023-05-20T04:43:04;14.70;96.50
1165;DHT22;571;50.930;6.926;2023-05-20T04:45:36;15.10;96.80
1165;DHT22;571;50.930;6.926;2023-05-20T04:48:15;14.70;96.40
1165;DHT22;571;50.930;6.926;2023-05-20T04:50:46;15.00;96.10
1165;DHT22;571;50.930;6.926;2023-05-20T04:53:16;14.70;96.60
1165;DHT22;571;50.930;6.926;2023-05-20T04:55:52;14.90;96.10
1165;DHT22;571;50.930;6.926;2023-05-20T04:58:36;14.90;96.10
1165;DHT22;571;50.930;6.926;2023-05-20T05:01:13;14.90;95.80
1165;DHT22;571;50.930;6.926;2023-05-20T05:03:41;14.80;96.70
1165;DHT22;571;50.930;6.926;2023-05-20T05:06:09;15.10;97.40
1165;DHT22;571;50.930;6.926;2023-05-20T05:08:48;14.70;96.80
1165;DHT22;571;50.930;6.926;2023-05-20T05:11:18;15.00;96.90
1165;DHT22;571;50.930;6.926;2023-05-20T05:13:54;15.30;97.60
1165;DHT22;571;50.930;6.926;2023-05-20T05:16:28;15.00;97.40
1165;DHT22;571;50.930;6.926;2023-05-20T05:19:04;14.90;97.50
1165;DHT22;571;50.930;6.926;2023-05-20T05:21:34;15.00;97.50
1165;DHT22;571;50.930;6.926;2023-05-20T05:24:02;15.00;97.90
1165;DHT22;571;50.930;6.926;2023-05-20T05:26:34;14.90;97.80
1165;DHT22;571;50.930;6.926;2023-05-20T05:29:03;15.00;96.90
1165;DHT22;571;50.930;6.926;2023-05-20T05:31:38;14.90;97.80
1165;DHT22;571;50.930;6.926;2023-05-20T05:34:08;15.00;98.10
1165;DHT22;571;50.930;6.926;2023-05-20T05:36:43;15.10;98.30
1165;DHT22;571;50.930;6.926;2023-05-20T05:39:09;15.20;98.50
1165;DHT22;571;50.930;6.926;2023-05-20T05:41:47;15.10;98.80
1165;DHT22;571;50.930;6.926;2023-05-20T05:44:27;15.30;98.70
1165;DHT22;571;50.930;6.926;2023-05-20T05:46:57;15.40;98.90
1165;DHT22;571;50.930;6.926;2023-05-20T05:49:40;15.50;98.60
1165;DHT22;571;50.930;6.926;2023-05-20T05:52:19;15.50;97.60
1165;DHT22;571;50.930;6.926;2023-05-20T05:54:55;15.60;97.90
1165;DHT22;571;50.930;6.926;2023-05-20T05:57:29;15.40;98.20
1165;DHT22;571;50.930;6.926;2023-05-20T05:59:59;15.50;98.00
1165;DHT22;571;50.930;6.926;2023-05-20T06:02:29;15.60;98.60
1165;DHT22;571;50.930;6.926;2023-05-20T06:05:04;15.80;97.80
1165;DHT22;571;50.930;6.926;2023-05-20T06:07:37;16.20;97.80
1165;DHT22;571;50.930;6.926;2023-05-20T06:10:05;15.90;98.20
1165;DHT22;571;50.930;6.926;2023-05-20T06:12:40;15.90;97.80
1165;DHT22;571;50.930;6.926;2023-05-20T06:15:45;16.00;97.00
1165;DHT22;571;50.930;6.926;2023-05-20T06:18:15;16.10;96.90
1165;DHT22;571;50.930;6.926;2023-05-20T06:20:42;16.20;96.60
1165;DHT22;571;50.930;6.926;2023-05-20T06:23:14;16.60;97.30
1165;DHT22;571;50.930;6.926;2023-05-20T06:25:46;16.40;98.10
1165;DHT22;571;50.930;6.926;2023-05-20T06:28:19;16.50;97.40
1165;DHT22;571;50.930;6.926;2023-05-20T06:30:50;16.60;97.50
1165;DHT22;571;50.930;6.926;2023-05-20T06:33:17;16.60;97.00
1165;DHT22;571;50.930;6.926;2023-05-20T06:35:46;16.70;96.80
1165;DHT22;571;50.930;6.926;2023-05-20T06:38:22;16.90;96.70
1165;DHT22;571;50.930;6.926;2023-05-20T06:40:56;16.70;95.60
1165;DHT22;571;50.930;6.926;2023-05-20T06:43:31;16.80;95.70
1165;DHT22;571;50.930;6.926;2023-05-20T06:46:08;16.90;95.60
1165;DHT22;571;50.930;6.926;2023-05-20T06:48:51;17.10;95.50
1165;DHT22;571;50.930;6.926;2023-05-20T06:51:35;17.00;95.60
1165;DHT22;571;50.930;6.926;2023-05-20T06:54:17;17.10;95.60
1165;DHT22;571;50.930;6.926;2023-05-20T06:59:44;17.60;94.70
1165;DHT22;571;50.930;6.926;2023-05-20T07:02:27;17.80;95.30
1165;DHT22;571;50.930;6.926;2023-05-20T07:05:01;17.60;95.40
1165;DHT22;571;50.930;6.926;2023-05-20T07:07:30;17.80;93.80
1165;DHT22;571;50.930;6.926;2023-05-20T07:10:03;17.80;93.90
1165;DHT22;571;50.930;6.926;2023-05-20T07:12:35;17.70;94.30
1165;DHT22;571;50.930;6.926;2023-05-20T07:15:14;18.20;94.30
1165;DHT22;571;50.930;6.926;2023-05-20T07:18:00;17.80;94.10
1165;DHT22;571;50.930;6.926;2023-05-20T07:20:32;17.90;94.00
1165;DHT22;571;50.930;6.926;2023-05-20T07:23:09;18.10;94.10
1165;DHT22;571;50.930;6.926;2023-05-20T07:25:49;18.00;93.90
1165;DHT22;571;50.930;6.926;2023-05-20T07:28:37;18.10;93.40
1165;DHT22;571;50.930;6.926;2023-05-20T08:20:08;19.20;84.20
1165;DHT22;571;50.930;6.926;2023-05-20T08:30:15;19.40;82.30
1165;DHT22;571;50.930;6.926;2023-05-20T08:36:51;19.60;81.20
1165;DHT22;571;50.930;6.926;2023-05-20T08:42:49;19.60;81.50
1165;DHT22;571;50.930;6.926;2023-05-20T08:49:36;19.80;81.90
1165;DHT22;571;50.930;6.926;2023-05-20T12:45:07;23.80;67.60
1165;DHT22;571;50.930;6.926;2023-05-20T14:35:56;24.20;62.50
1165;DHT22;571;50.930;6.926;2023-05-20T14:56:18;23.00;65.70
1165;DHT22;571;50.930;6.926;2023-05-20T15:04:53;22.70;66.00
1165;DHT22;571;50.930;6.926;2023-05-20T15:11:11;22.50;67.20
1165;DHT22;571;50.930;6.926;2023-05-20T15:13:42;22.40;66.70
1165;DHT22;571;50.930;6.926;2023-05-20T15:16:11;22.30;68.00
1165;DHT22;571;50.930;6.926;2023-05-20T15:19:00;22.50;67.50
1165;DHT22;571;50.930;6.926;2023-05-20T15:21:40;22.30;67.10
1165;DHT22;571;50.930;6.926;2023-05-20T15:24:09;22.10;65.50
1165;DHT22;571;50.930;6.926;2023-05-20T15:26:43;22.10;67.60
1165;DHT22;571;50.930;6.926;2023-05-20T15:29:14;22.10;68.60
1165;DHT22;571;50.930;6.926;2023-05-20T15:31:47;21.90;67.90
1165;DHT22;571;50.930;6.926;2023-05-20T15:34:20;22.00;68.90
1165;DHT22;571;50.930;6.926;2023-05-20T15:36:49;21.90;69.00
1165;DHT22;571;50.930;6.926;2023-05-20T15:39:27;22.10;69.20
1165;DHT22;571;50.930;6.926;2023-05-20T15:42:01;22.00;70.20
1165;DHT22;571;50.930;6.926;2023-05-20T15:44:35;21.80;69.80
1165;DHT22;571;50.930;6.926;2023-05-20T15:47:10;21.90;68.20
1165;DHT22;571;50.930;6.926;2023-05-20T15:49:40;22.00;69.10
1165;DHT22;571;50.930;6.926;2023-05-20T15:52:27;21.90;68.70
1165;DHT22;571;50.930;6.926;2023-05-20T15:55:10;21.90;68.20
1165;DHT22;571;50.930;6.926;2023-05-20T15:57:52;22.10;70.50
1165;DHT22;571;50.930;6.926;2023-05-20T16:00:36;21.90;69.30
1165;DHT22;571;50.930;6.926;2023-05-20T16:03:18;21.70;70.20
1165;DHT22;571;50.930;6.926;2023-05-20T16:06:26;21.90;70.50
1165;DHT22;571;50.930;6.926;2023-05-20T16:09:12;22.10;71.20
1165;DHT22;571;50.930;6.926;2023-05-20T16:11:47;21.80;70.30
1165;DHT22;571;50.930;6.926;2023-05-20T16:31:35;21.60;74.00
1165;DHT22;571;50.930;6.926;2023-05-20T16:34:12;21.40;73.80
1165;DHT22;571;50.930;6.926;2023-05-20T16:36:53;21.40;73.30
1165;DHT22;571;50.930;6.926;2023-05-20T16:39:27;21.70;74.40
1165;DHT22;571;50.930;6.926;2023-05-20T16:42:14;21.50;73.90
1165;DHT22;571;50.930;6.926;2023-05-20T16:45:00;21.80;75.00
1165;DHT22;571;50.930;6.926;2023-05-20T16:47:40;21.80;75.00
1165;DHT22;571;50.930;6.926;2023-05-20T16:50:12;21.50;74.30
1165;DHT22;571;50.930;6.926;2023-05-20T16:52:47;21.60;75.30
1165;DHT22;571;50.930;6.926;2023-05-20T16:55:21;21.50;75.40
1165;DHT22;571;50.930;6.926;2023-05-20T16:57:47;21.50;75.80
1165;DHT22;571;50.930;6.926;2023-05-20T17:00:17;21.50;75.00
1165;DHT22;571;50.930;6.926;2023-05-20T17:02:46;21.50;73.80
1165;DHT22;571;50.930;6.926;2023-05-20T17:05:16;21.50;75.30
1165;DHT22;571;50.930;6.926;2023-05-20T17:07:43;21.60;75.80
1165;DHT22;571;50.930;6.926;2023-05-20T17:10:10;21.30;76.00
1165;DHT22;571;50.930;6.926;2023-05-20T17:12:37;21.20;77.50
1165;DHT22;571;50.930;6.926;2023-05-20T17:15:04;21.20;77.80
1165;DHT22;571;50.930;6.926;2023-05-20T17:17:31;21.20;79.30
1165;DHT22;571;50.930;6.926;2023-05-20T17:20:00;21.10;80.20
1165;DHT22;571;50.930;6.926;2023-05-20T17:22:45;21.40;80.40
1165;DHT22;571;50.930;6.926;2023-05-20T17:25:48;21.00;82.00
1165;DHT22;571;50.930;6.926;2023-05-20T17:32:12;21.00;83.00
1165;DHT22;571;50.930;6.926;2023-05-20T17:35:26;21.20;89.10
1165;DHT22;571;50.930;6.926;2023-05-20T17:38:29;20.90;86.80
1165;DHT22;571;50.930;6.926;2023-05-20T17:41:30;20.90;85.20
1165;DHT22;571;50.930;6.926;2023-05-20T17:45:15;20.90;88.60
1165;DHT22;571;50.930;6.926;2023-05-20T17:54:01;20.70;84.80
1165;DHT22;571;50.930;6.926;2023-05-20T18:00:41;20.80;84.50
1165;DHT22;571;50.930;6.926;2023-05-20T19:25:32;19.50;84.90
1165;DHT22;571;50.930;6.926;2023-05-20T19:27:34;19.40;85.00
1165;DHT22;571;50.930;6.926;2023-05-20T19:39:19;19.30;86.70
1165;DHT22;571;50.930;6.926;2023-05-20T19:51:13;18.90;88.50
1165;DHT22;571;50.930;6.926;2023-05-20T19:54:12;18.90;89.10
1165;DHT22;571;50.930;6.926;2023-05-20T19:57:45;18.80;89.30
1165;DHT22;571;50.930;6.926;2023-05-20T20:00:40;18.70;89.70
1165;DHT22;571;50.930;6.926;2023-05-20T20:03:25;18.70;90.10
1165;DHT22;571;50.930;6.926;2023-05-20T20:06:05;18.70;90.50
1165;DHT22;571;50.930;6.926;2023-05-20T20:08:37;18.60;90.40
1165;DHT22;571;50.930;6.926;2023-05-20T20:11:11;18.60;90.40
1165;DHT22;571;50.930;6.926;2023-05-20T20:13:49;18.60;91.10
1165;DHT22;571;50.930;6.926;2023-05-20T20:16:31;18.60;90.90
1165;DHT22;571;50.930;6.926;2023-05-20T20:19:21;18.50;91.10
1165;DHT22;571;50.930;6.926;2023-05-20T20:22:24;18.50;91.10
1165;DHT22;571;50.930;6.926;2023-05-20T20:25:05;18.40;91.30
1165;DHT22;571;50.930;6.926;2023-05-20T20:28:21;18.40;91.40
1165;DHT22;571;50.930;6.926;2023-05-20T21:00:59;18.00;93.10
1165;DHT22;571;50.930;6.926;2023-05-20T21:04:01;17.90;92.80
1165;DHT22;571;50.930;6.926;2023-05-20T21:07:04;17.90;93.20
1165;DHT22;571;50.930;6.926;2023-05-20T21:10:24;17.80;93.10
1165;DHT22;571;50.930;6.926;2023-05-20T21:45:43;17.40;94.10
